< < Back
Terminal Aerodrome Forecast


Current Version              Previous Versions:   1  2  3  4  5  6  7  8  9  

Terminal Aerodrome Forecast

218
FTUS42 KMLB 020253 AAA
TAFMCO
TAF AMD
KMCO 020253Z 0203/0224 12008KT P6SM FEW250
     FM021400 17008KT P6SM FEW040 SCT250
     FM022200 13010KT P6SM SCT040 SCT060=



Latest METAR

048
SAUS70 KWBC 020300 RRI
MTRMCO
METAR KMCO 020253Z 12008KT 10SM CLR 24/20 A3006 RMK AO2 SLP179 T02390200
51018 $


USA.gov is the U.S. government's official web portal to all federal, state and local government web resources and services.